Time;durP1;ratioP1;P1;durP2;ratioP2;P2;SDS_P1;SDS_P2;PMS_P1;PMS_P2;Temp;Humidity;BMP_temperature;BMP_pressure;BME280_temperature;BME280_humidity;BME280_pressure;Samples;Min_cycle;Max_cycle;Signal;HPM_P1;HPM_P2
2022/08/24 00:00:33;;;;;;;10.53;6.67;;;20.90;99.90;;;;;;4825426;29;20199;-70
2022/08/24 00:03:01;;;;;;;12.33;6.60;;;20.90;99.90;;;;;;4824305;29;20548;-69
2022/08/24 00:05:31;;;;;;;21.13;8.07;;;20.90;99.90;;;;;;4823915;29;20199;-72
2022/08/24 00:08:01;;;;;;;12.57;6.43;;;20.80;99.90;;;;;;4806619;29;20206;-71
2022/08/24 00:10:28;;;;;;;12.27;6.63;;;20.80;99.90;;;;;;4806189;29;20628;-70
2022/08/24 00:12:56;;;;;;;11.93;6.50;;;20.90;99.90;;;;;;4807376;29;20306;-71
2022/08/24 00:15:23;;;;;;;10.07;6.13;;;20.90;99.90;;;;;;4807409;29;20210;-71
2022/08/24 00:17:50;;;;;;;9.87;6.23;;;20.90;99.90;;;;;;4806171;29;20647;-68
2022/08/24 00:20:17;;;;;;;9.73;6.27;;;20.90;99.90;;;;;;4807116;29;20199;-68
2022/08/24 00:22:44;;;;;;;11.77;6.53;;;20.80;99.90;;;;;;4806142;29;20214;-72
2022/08/24 00:25:12;;;;;;;12.80;6.30;;;20.80;99.90;;;;;;4807040;29;20670;-72
2022/08/24 00:27:40;;;;;;;12.03;6.47;;;20.80;99.90;;;;;;4805819;29;20208;-72
2022/08/24 00:30:10;;;;;;;13.90;6.20;;;20.70;99.90;;;;;;4813385;29;20329;-69
2022/08/24 00:32:37;;;;;;;11.50;6.10;;;20.80;99.90;;;;;;4824174;29;20318;-72
2022/08/24 00:35:06;;;;;;;10.27;6.13;;;20.70;99.90;;;;;;4823638;29;20219;-71
2022/08/24 00:37:34;;;;;;;9.70;6.23;;;20.80;99.90;;;;;;4824036;29;20219;-71
2022/08/24 00:40:04;;;;;;;9.70;6.07;;;20.70;99.90;;;;;;4825304;29;20210;-70
2022/08/24 00:42:31;;;;;;;13.43;6.10;;;20.60;99.90;;;;;;4823623;29;20207;-71
2022/08/24 00:44:58;;;;;;;11.90;6.77;;;20.60;99.90;;;;;;4823795;29;20238;-73
2022/08/24 00:47:33;;;;;;;11.80;6.50;;;20.60;99.90;;;;;;4824033;29;20290;-72
2022/08/24 00:50:05;;;;;;;9.93;6.57;;;20.60;99.90;;;;;;4825193;29;20214;-71
2022/08/24 00:52:39;;;;;;;11.93;6.43;;;20.60;99.90;;;;;;4825146;29;20207;-72
2022/08/24 00:55:11;;;;;;;12.47;6.77;;;20.60;99.90;;;;;;4823784;29;20216;-72
2022/08/24 00:57:43;;;;;;;11.07;6.47;;;20.60;99.90;;;;;;4822995;29;20214;-73
2022/08/24 01:00:21;;;;;;;9.77;6.00;;;20.60;99.90;;;;;;4823496;29;20217;-72
2022/08/24 01:02:57;;;;;;;12.33;6.17;;;20.60;99.90;;;;;;4823593;29;20236;-74
2022/08/24 01:05:24;;;;;;;10.13;6.30;;;20.50;99.90;;;;;;4823573;29;20241;-73
2022/08/24 01:07:51;;;;;;;11.93;6.73;;;20.50;99.90;;;;;;4823882;29;20278;-74
2022/08/24 01:10:24;;;;;;;14.80;6.27;;;20.50;99.90;;;;;;4824651;29;20221;-72
2022/08/24 01:12:55;;;;;;;13.27;6.20;;;20.50;99.90;;;;;;4823539;29;20654;-73
2022/08/24 01:15:28;;;;;;;11.83;6.40;;;20.50;99.90;;;;;;4834317;29;20221;-74
2022/08/24 01:20:46;;;;;;;13.47;6.27;;;20.50;99.90;;;;;;4823958;29;20232;-73
2022/08/24 01:23:34;;;;;;;15.63;6.40;;;20.50;99.90;;;;;;4823339;29;20211;-71
2022/08/24 01:26:03;;;;;;;11.40;6.50;;;20.40;99.90;;;;;;4820181;29;20299;-72
2022/08/24 01:28:30;;;;;;;12.23;6.70;;;20.40;99.90;;;;;;4805573;29;20203;-72
2022/08/24 01:30:58;;;;;;;11.40;6.37;;;20.40;99.90;;;;;;4820173;29;20264;-72
2022/08/24 01:33:30;;;;;;;12.13;6.77;;;20.40;99.90;;;;;;4822421;29;20704;-72
2022/08/24 01:36:17;;;;;;;11.20;6.77;;;20.40;99.90;;;;;;4807921;29;20305;-73
2022/08/24 01:38:46;;;;;;;10.93;6.70;;;20.30;99.90;;;;;;4824454;29;20450;-72
2022/08/24 01:41:14;;;;;;;12.93;6.27;;;20.30;99.90;;;;;;4823667;29;20222;-73
2022/08/24 01:43:41;;;;;;;11.30;6.40;;;20.30;99.90;;;;;;4822909;29;20241;-72
2022/08/24 01:46:08;;;;;;;12.07;6.60;;;20.30;99.90;;;;;;4823038;29;20245;-70
2022/08/24 01:48:35;;;;;;;14.50;7.03;;;20.30;99.90;;;;;;4824183;29;20199;-72
2022/08/24 01:51:03;;;;;;;11.57;6.60;;;20.30;99.90;;;;;;4823337;29;20210;-71
2022/08/24 01:53:29;;;;;;;12.17;6.50;;;20.30;99.90;;;;;;4822935;29;20302;-72
2022/08/24 01:55:56;;;;;;;11.57;6.43;;;20.20;99.90;;;;;;4838092;29;20209;-73
2022/08/24 01:58:23;;;;;;;13.70;6.70;;;20.20;99.90;;;;;;4838164;29;20218;-72
2022/08/24 02:00:50;;;;;;;12.37;7.00;;;20.20;99.90;;;;;;4838095;29;20213;-71
2022/08/24 02:03:17;;;;;;;12.73;7.20;;;20.10;99.90;;;;;;4822613;29;20211;-72
2022/08/24 02:05:44;;;;;;;15.93;7.57;;;20.10;99.90;;;;;;4822779;29;20207;-71
2022/08/24 02:08:11;;;;;;;14.87;7.60;;;20.00;99.90;;;;;;4823275;29;20215;-72
2022/08/24 02:10:38;;;;;;;18.30;8.43;;;20.10;99.90;;;;;;4824791;29;20217;-72
2022/08/24 02:13:05;;;;;;;16.40;8.70;;;20.20;99.90;;;;;;4826319;29;20217;-72
2022/08/24 02:15:38;;;;;;;15.47;8.40;;;20.10;99.90;;;;;;4826279;29;20218;-74
2022/08/24 02:18:10;;;;;;;13.20;8.77;;;20.20;99.90;;;;;;4827481;29;20285;-73
2022/08/24 02:20:42;;;;;;;17.90;9.33;;;20.10;99.90;;;;;;4826110;29;20575;-72
2022/08/24 02:23:09;;;;;;;13.87;8.53;;;20.10;99.90;;;;;;4826390;29;20210;-72
2022/08/24 02:25:36;;;;;;;15.40;9.10;;;20.00;99.90;;;;;;4825961;29;20230;-72
2022/08/24 02:28:03;;;;;;;13.73;9.00;;;20.10;99.90;;;;;;4826004;29;20199;-72
2022/08/24 02:30:31;;;;;;;15.67;9.10;;;20.10;99.90;;;;;;4825698;29;20625;-73
2022/08/24 02:32:58;;;;;;;13.67;8.67;;;20.00;99.90;;;;;;4827430;29;20198;-73
2022/08/24 02:35:28;;;;;;;13.67;9.33;;;20.10;99.90;;;;;;4827021;29;20222;-72
2022/08/24 02:37:56;;;;;;;13.23;9.20;;;20.00;99.90;;;;;;4826207;29;20206;-73
2022/08/24 02:40:24;;;;;;;18.47;10.13;;;19.80;99.90;;;;;;4827024;29;20220;-72
2022/08/24 02:42:51;;;;;;;14.53;9.07;;;19.80;99.90;;;;;;4825811;29;20645;-71
2022/08/24 02:45:18;;;;;;;19.60;9.77;;;19.80;99.90;;;;;;4825342;29;20249;-71
2022/08/24 02:47:45;;;;;;;16.83;10.03;;;19.80;99.90;;;;;;4826831;29;20201;-70
2022/08/24 02:50:15;;;;;;;13.83;9.00;;;19.80;99.90;;;;;;4825952;29;20207;-70
2022/08/24 02:52:42;;;;;;;16.20;9.30;;;19.90;99.90;;;;;;4826625;29;20220;-72
2022/08/24 02:55:12;;;;;;;13.70;9.30;;;19.90;99.90;;;;;;4825848;29;20209;-73
2022/08/24 02:57:40;;;;;;;12.73;8.90;;;19.90;99.90;;;;;;4825094;29;20210;-72
2022/08/24 03:00:10;;;;;;;13.67;9.37;;;19.90;99.90;;;;;;4825623;29;20210;-71
2022/08/24 03:02:38;;;;;;;16.70;8.77;;;19.80;99.90;;;;;;4810090;29;20207;-72
2022/08/24 03:05:07;;;;;;;13.00;8.80;;;19.80;99.90;;;;;;4826609;29;20685;-72
2022/08/24 03:07:34;;;;;;;15.50;8.83;;;19.80;99.90;;;;;;4825531;29;20562;-71
2022/08/24 03:10:01;;;;;;;13.83;8.83;;;19.90;99.90;;;;;;4825531;29;20589;-72
2022/08/24 03:12:28;;;;;;;12.17;8.30;;;19.90;99.90;;;;;;4824911;29;20207;-71
2022/08/24 03:14:55;;;;;;;14.07;8.47;;;19.90;99.90;;;;;;4826443;29;20230;-73
2022/08/24 03:17:22;;;;;;;13.93;8.93;;;19.90;99.90;;;;;;4825118;29;20206;-72
2022/08/24 03:19:49;;;;;;;15.50;8.97;;;20.00;99.90;;;;;;4825084;29;20310;-72
2022/08/24 03:22:17;;;;;;;14.37;9.00;;;20.00;99.90;;;;;;4824776;29;20207;-71
2022/08/24 03:24:44;;;;;;;12.47;8.67;;;19.90;99.90;;;;;;4810218;29;20666;-72
2022/08/24 03:27:12;;;;;;;13.27;8.40;;;19.80;99.90;;;;;;4824878;29;20210;-72
2022/08/24 03:29:40;;;;;;;12.97;8.50;;;19.90;99.90;;;;;;4825318;29;20211;-72
2022/08/24 03:32:07;;;;;;;13.07;8.77;;;20.00;99.90;;;;;;4825218;29;20211;-69
2022/08/24 03:34:34;;;;;;;13.90;8.57;;;20.00;99.90;;;;;;4825220;29;20231;-73
2022/08/24 03:37:02;;;;;;;13.47;8.47;;;19.90;99.90;;;;;;4826506;29;20197;-72
2022/08/24 03:39:29;;;;;;;13.30;8.27;;;19.90;99.90;;;;;;4824840;29;20211;-71
2022/08/24 03:41:56;;;;;;;13.17;8.93;;;19.80;99.90;;;;;;4824851;29;20213;-72
2022/08/24 03:44:24;;;;;;;15.33;8.43;;;19.80;99.90;;;;;;4822017;29;20242;-72
2022/08/24 03:46:52;;;;;;;13.30;8.00;;;19.90;99.90;;;;;;4806706;29;20244;-71
2022/08/24 03:49:19;;;;;;;13.27;8.57;;;19.90;99.90;;;;;;4806878;29;20302;-72
2022/08/24 03:51:46;;;;;;;13.33;8.30;;;20.00;99.90;;;;;;4808488;29;20237;-73
2022/08/24 03:54:13;;;;;;;12.77;8.47;;;20.00;99.90;;;;;;4806570;29;20207;-72
2022/08/24 03:56:40;;;;;;;16.40;8.60;;;20.00;99.90;;;;;;4806303;29;20211;-73
2022/08/24 03:59:09;;;;;;;16.30;8.90;;;20.00;99.90;;;;;;4806450;29;20241;-72
2022/08/24 04:01:37;;;;;;;13.17;8.43;;;20.10;99.90;;;;;;4807717;29;20557;-72
2022/08/24 04:04:04;;;;;;;14.07;7.90;;;20.00;99.90;;;;;;4806280;29;20208;-72
2022/08/24 04:06:31;;;;;;;14.47;7.80;;;20.10;99.90;;;;;;4807702;29;20207;-73
2022/08/24 04:08:58;;;;;;;12.57;7.90;;;20.10;99.90;;;;;;4806646;29;20299;-73
2022/08/24 04:11:27;;;;;;;16.60;8.50;;;20.10;99.90;;;;;;4806249;29;20211;-72
2022/08/24 04:13:57;;;;;;;15.43;8.20;;;20.20;99.90;;;;;;4807379;29;20195;-71
2022/08/24 04:16:25;;;;;;;14.40;8.70;;;20.20;99.90;;;;;;4791272;29;20243;-70
2022/08/24 04:18:52;;;;;;;15.50;8.93;;;20.20;99.90;;;;;;4807671;29;20580;-70
2022/08/24 04:21:28;;;;;;;11.77;7.73;;;20.10;99.90;;;;;;4806030;29;20212;-72
2022/08/24 04:23:56;;;;;;;13.50;8.10;;;20.10;99.90;;;;;;4807061;29;20199;-72
2022/08/24 04:26:25;;;;;;;14.30;8.50;;;20.00;99.90;;;;;;4805863;29;20295;-72
2022/08/24 04:29:14;;;;;;;13.60;8.30;;;20.10;99.90;;;;;;4805729;29;20207;-72
2022/08/24 04:31:42;;;;;;;15.43;8.63;;;20.00;99.90;;;;;;4805907;29;20230;-69
2022/08/24 04:34:10;;;;;;;13.43;8.63;;;20.10;99.90;;;;;;4805222;29;20228;-68
2022/08/24 04:36:41;;;;;;;15.17;8.20;;;20.10;99.90;;;;;;4805728;29;20208;-72
2022/08/24 04:39:08;;;;;;;16.27;8.57;;;20.10;99.90;;;;;;4806119;29;20207;-71
2022/08/24 04:41:36;;;;;;;12.83;8.13;;;20.20;99.90;;;;;;4805677;29;20213;-71
2022/08/24 04:44:03;;;;;;;15.47;9.20;;;20.20;99.90;;;;;;4805752;29;20573;-72
2022/08/24 04:46:30;;;;;;;16.67;9.00;;;20.20;99.90;;;;;;4805509;29;20231;-71
2022/08/24 04:48:57;;;;;;;13.53;8.20;;;20.20;99.90;;;;;;4805542;29;20238;-72
2022/08/24 04:51:24;;;;;;;13.90;8.70;;;20.30;99.90;;;;;;4805433;29;20214;-72
2022/08/24 04:53:51;;;;;;;15.80;8.47;;;20.30;99.90;;;;;;4805707;29;20219;-71
2022/08/24 04:56:25;;;;;;;12.93;8.27;;;20.30;99.90;;;;;;4805548;29;20218;-72
2022/08/24 04:58:54;;;;;;;11.67;7.83;;;20.30;99.90;;;;;;4805667;29;20267;-73
2022/08/24 05:01:24;;;;;;;14.07;8.73;;;20.40;99.90;;;;;;4805399;29;20211;-73
2022/08/24 05:03:53;;;;;;;12.40;7.90;;;20.50;99.90;;;;;;4820557;29;20214;-74
2022/08/24 05:06:23;;;;;;;14.77;8.83;;;20.60;99.90;;;;;;4820663;29;20244;-73
2022/08/24 05:08:50;;;;;;;15.00;9.40;;;20.50;99.90;;;;;;4824484;29;20544;-71
2022/08/24 05:11:19;;;;;;;18.23;8.90;;;20.50;99.90;;;;;;4824513;29;20202;-73
2022/08/24 05:13:46;;;;;;;18.53;9.70;;;20.60;99.90;;;;;;4824449;29;20207;-72
2022/08/24 05:16:16;;;;;;;15.10;9.83;;;20.60;99.90;;;;;;4823413;29;20209;-72
2022/08/24 05:18:44;;;;;;;17.60;9.50;;;20.60;99.90;;;;;;4824329;29;20223;-72
2022/08/24 05:21:17;;;;;;;16.90;9.23;;;20.70;99.90;;;;;;4838358;29;20231;-72
2022/08/24 05:23:47;;;;;;;16.30;9.00;;;20.70;99.90;;;;;;4823074;29;20728;-73
2022/08/24 05:26:18;;;;;;;14.87;8.57;;;20.80;99.90;;;;;;4823072;29;20234;-73
2022/08/24 05:28:46;;;;;;;17.60;9.00;;;20.80;99.90;;;;;;4823738;29;20231;-71
2022/08/24 05:31:18;;;;;;;14.87;8.97;;;20.90;99.90;;;;;;4824007;29;20235;-71
2022/08/24 05:33:47;;;;;;;15.47;8.90;;;20.90;99.90;;;;;;4824207;29;20238;-71
2022/08/24 05:36:21;;;;;;;24.90;10.73;;;21.00;99.90;;;;;;4823381;29;20224;-71
2022/08/24 05:38:50;;;;;;;16.27;9.10;;;21.00;99.90;;;;;;4823124;29;20212;-73
2022/08/24 05:41:17;;;;;;;16.67;9.43;;;21.00;99.90;;;;;;4822963;29;20638;-73
2022/08/24 05:43:44;;;;;;;15.03;8.40;;;21.00;99.90;;;;;;4819734;29;20212;-73
2022/08/24 05:46:12;;;;;;;11.57;7.87;;;21.10;99.90;;;;;;4823993;29;20775;-71
2022/08/24 05:48:39;;;;;;;15.87;9.20;;;21.10;99.90;;;;;;4822554;29;20214;-71
2022/08/24 05:51:08;;;;;;;14.27;8.27;;;21.10;99.90;;;;;;4823056;29;20218;-73
2022/08/24 05:53:35;;;;;;;14.20;8.47;;;21.30;99.90;;;;;;4822855;29;20199;-71
2022/08/24 05:56:08;;;;;;;19.20;9.70;;;21.30;99.90;;;;;;4822870;29;20213;-73
2022/08/24 05:58:36;;;;;;;15.37;9.40;;;21.40;99.90;;;;;;4822882;29;20211;-74
2022/08/24 06:01:19;;;;;;;17.80;9.77;;;21.50;99.90;;;;;;4824067;29;20607;-73
2022/08/24 06:03:48;;;;;;;19.70;8.70;;;21.50;99.90;;;;;;4824258;29;20620;-72
2022/08/24 06:06:17;;;;;;;13.47;9.20;;;21.60;99.90;;;;;;4824233;29;20230;-72
2022/08/24 06:08:46;;;;;;;14.17;9.33;;;21.70;99.90;;;;;;4822689;29;20214;-72
2022/08/24 06:11:36;;;;;;;14.70;9.13;;;21.80;99.90;;;;;;4822739;29;20225;-73
2022/08/24 06:14:06;;;;;;;15.20;8.80;;;21.80;99.90;;;;;;4822516;29;20209;-72
2022/08/24 06:16:42;;;;;;;18.57;9.57;;;21.90;99.90;;;;;;4823791;29;20561;-72
2022/08/24 06:19:12;;;;;;;14.97;8.33;;;22.00;99.90;;;;;;4838053;29;20229;-72
2022/08/24 06:21:39;;;;;;;12.97;8.83;;;22.10;99.90;;;;;;4822158;29;20221;-72
2022/08/24 06:24:06;;;;;;;18.13;9.50;;;22.20;99.90;;;;;;4822314;29;20293;-72
2022/08/24 06:29:20;;;;;;;20.27;9.80;;;22.50;99.90;;;;;;4822297;29;20203;-75
2022/08/24 06:31:48;;;;;;;17.17;9.10;;;22.60;99.90;;;;;;4822341;29;20309;-75
2022/08/24 06:34:24;;;;;;;15.20;8.80;;;22.70;99.90;;;;;;4822225;29;20222;-76
2022/08/24 06:36:51;;;;;;;27.67;10.47;;;22.70;99.90;;;;;;4822288;29;20206;-74
2022/08/24 06:39:19;;;;;;;18.07;8.90;;;22.80;99.90;;;;;;4837698;29;20645;-74
2022/08/24 06:41:46;;;;;;;21.10;9.32;;;22.90;99.90;;;;;;4822389;29;20199;-75
2022/08/24 06:44:13;;;;;;;15.50;8.90;;;23.00;99.90;;;;;;4822118;29;20211;-74
2022/08/24 06:46:40;;;;;;;18.97;8.73;;;23.10;99.90;;;;;;4822082;29;20341;-74
2022/08/24 06:49:07;;;;;;;16.23;8.83;;;23.30;99.90;;;;;;4822211;29;20207;-74
2022/08/24 06:51:34;;;;;;;20.73;9.27;;;23.40;99.90;;;;;;4823488;29;20211;-74
2022/08/24 06:54:01;;;;;;;26.33;9.90;;;23.40;99.90;;;;;;4823377;29;20207;-74
2022/08/24 06:56:27;;;;;;;20.27;9.07;;;23.50;99.90;;;;;;4823891;29;20217;-75
2022/08/24 06:58:54;;;;;;;24.57;9.77;;;23.50;99.90;;;;;;4826569;29;20230;-74
2022/08/24 07:01:27;;;;;;;24.07;9.30;;;23.60;99.90;;;;;;4795305;29;20584;-74
2022/08/24 07:03:54;;;;;;;16.37;9.13;;;23.70;99.90;;;;;;4825424;29;20211;-75
2022/08/24 07:06:23;;;;;;;19.20;9.15;;;23.80;99.90;;;;;;4825279;29;20231;-74
2022/08/24 07:08:51;;;;;;;16.75;9.05;;;23.80;99.90;;;;;;4825719;29;20210;-76
2022/08/24 07:11:19;;;;;;;18.63;8.50;;;23.90;99.90;;;;;;4825070;29;20214;-75
2022/08/24 07:13:47;;;;;;;17.00;8.83;;;23.90;99.90;;;;;;4824760;29;20203;-70
2022/08/24 07:16:16;;;;;;;16.80;8.83;;;23.90;99.90;;;;;;4824891;29;20334;-72
2022/08/24 07:18:44;;;;;;;22.83;9.50;;;23.90;99.90;;;;;;4826526;29;20199;-69
2022/08/24 07:21:18;;;;;;;21.90;9.20;;;23.90;99.90;;;;;;4826284;29;20248;-70
2022/08/24 07:23:47;;;;;;;22.17;9.30;;;24.00;99.90;;;;;;4826206;29;20203;-71
2022/08/24 07:26:21;;;;;;;20.83;9.10;;;24.00;99.90;;;;;;4826076;29;20580;-71
2022/08/24 07:29:04;;;;;;;16.93;8.73;;;24.00;99.90;;;;;;4824921;29;20201;-70
2022/08/24 07:31:36;;;;;;;20.05;9.75;;;24.00;99.90;;;;;;4824804;29;20298;-69
2022/08/24 07:34:05;;;;;;;22.10;9.67;;;23.80;99.90;;;;;;4824763;29;20223;-69
2022/08/24 07:36:33;;;;;;;18.40;8.25;;;23.90;99.90;;;;;;4824731;29;20199;-70
2022/08/24 07:39:00;;;;;;;23.47;9.17;;;24.10;99.90;;;;;;4824718;29;20210;-70
2022/08/24 07:41:27;;;;;;;21.47;8.97;;;24.10;99.90;;;;;;4825646;29;20211;-74
2022/08/24 07:44:14;;;;;;;21.60;8.63;;;24.30;99.90;;;;;;4811700;29;20206;-69
2022/08/24 07:46:42;;;;;;;16.90;8.70;;;24.50;99.90;;;;;;4824274;29;20333;-70
2022/08/24 07:49:10;;;;;;;15.82;8.20;;;24.60;99.90;;;;;;4824750;29;20302;-70
2022/08/24 07:51:57;;;;;;;16.98;8.40;;;24.80;99.90;;;;;;4825322;29;20207;-69
2022/08/24 07:54:26;;;;;;;17.55;8.00;;;25.00;99.90;;;;;;4824837;29;20305;-70
2022/08/24 07:56:54;;;;;;;16.17;7.65;;;25.20;99.90;;;;;;4825559;29;20217;-69
2022/08/24 07:59:21;;;;;;;20.20;8.52;;;25.30;99.90;;;;;;4824149;29;20627;-68
2022/08/24 08:01:49;;;;;;;29.83;8.85;;;25.50;99.90;;;;;;4824272;29;20285;-77
2022/08/24 08:04:20;;;;;;;20.17;8.38;;;25.60;99.90;;;;;;4824400;29;20617;-73
2022/08/24 08:06:48;;;;;;;22.13;8.35;;;25.60;99.90;;;;;;4823761;29;20272;-76
2022/08/24 08:09:15;;;;;;;26.20;8.13;;;25.70;99.90;;;;;;4823651;29;20210;-72
2022/08/24 08:11:43;;;;;;;20.83;7.90;;;26.00;99.90;;;;;;4824049;29;20207;-72
2022/08/24 08:14:13;;;;;;;23.95;7.93;;;26.30;99.90;;;;;;4823863;29;20298;-73
2022/08/24 08:16:41;;;;;;;26.92;8.80;;;26.70;99.90;;;;;;4823760;29;20574;-73
2022/08/24 08:19:08;;;;;;;24.13;7.70;;;27.20;99.90;;;;;;4823847;29;20711;-72
2022/08/24 08:24:30;;;;;;;23.33;7.97;;;27.50;99.90;;;;;;4838972;29;20207;-71
2022/08/24 08:27:04;;;;;;;20.95;7.65;;;27.50;99.90;;;;;;4823378;29;20231;-72
2022/08/24 08:29:33;;;;;;;23.05;7.30;;;27.60;99.90;;;;;;4823528;29;20274;-70
2022/08/24 08:32:00;;;;;;;24.02;7.15;;;27.50;99.90;;;;;;4823615;29;20234;-72
2022/08/24 08:34:30;;;;;;;35.10;8.40;;;27.50;99.90;;;;;;4823804;29;20258;-71
2022/08/24 08:36:57;;;;;;;29.45;7.80;;;27.60;99.90;;;;;;4824267;29;20221;-72
2022/08/24 08:39:25;;;;;;;24.90;7.45;;;27.70;99.90;;;;;;4823566;29;20199;-69
2022/08/24 08:42:13;;;;;;;33.72;8.32;;;27.80;99.90;;;;;;4823212;29;20195;-71
2022/08/24 08:44:47;;;;;;;27.90;7.88;;;28.20;99.90;;;;;;4824605;29;20214;-71
2022/08/24 08:47:20;;;;;;;31.48;7.68;;;28.60;99.90;;;;;;4823307;29;20321;-71
2022/08/24 08:50:05;;;;;;;26.35;8.10;;;28.80;99.90;;;;;;4824627;29;20191;-70
2022/08/24 08:52:38;;;;;;;30.52;7.70;;;29.20;99.90;;;;;;4822974;29;20550;-72
2022/08/24 08:55:20;;;;;;;29.75;7.90;;;29.30;99.90;;;;;;4824193;29;20234;-72
2022/08/24 08:58:27;;;;;;;33.72;7.78;;;29.20;99.90;;;;;;4823337;29;20299;-70
2022/08/24 09:01:12;;;;;;;29.10;7.38;;;29.20;99.90;;;;;;4803819;29;20214;-72
2022/08/24 09:04:00;;;;;;;33.17;7.60;;;29.40;99.90;;;;;;4788702;29;20211;-72
2022/08/24 09:07:04;;;;;;;37.42;7.75;;;29.30;99.90;;;;;;4788853;29;20758;-70
2022/08/24 09:09:58;;;;;;;30.02;7.35;;;29.30;99.90;;;;;;4788875;29;20217;-71
2022/08/24 09:12:48;;;;;;;29.23;7.00;;;29.60;99.90;;;;;;4803707;29;20208;-72
2022/08/24 09:16:14;;;;;;;28.50;7.32;;;29.80;99.90;;;;;;4788566;29;20317;-72
2022/08/24 09:18:57;;;;;;;37.05;7.10;;;30.30;99.90;;;;;;4743605;30;20244;-72
2022/08/24 09:21:45;;;;;;;27.13;6.43;;;30.70;99.90;;;;;;4750115;30;20224;-72
2022/08/24 09:24:27;;;;;;;34.67;7.35;;;31.20;99.90;;;;;;4750039;30;20364;-74
2022/08/24 09:27:01;;;;;;;40.25;7.38;;;31.70;99.90;;;;;;4734884;30;20245;-71
2022/08/24 09:30:03;;;;;;;38.70;7.15;;;31.90;99.90;;;;;;4749877;30;20216;-71
2022/08/24 09:33:08;;;;;;;37.55;7.03;;;32.20;99.90;;;;;;4714525;30;20677;-71
2022/08/24 09:36:01;;;;;;;34.58;6.53;;;32.40;99.90;;;;;;4685769;30;20833;-72
2022/08/24 09:38:57;;;;;;;36.30;6.15;;;32.80;99.90;;;;;;4714669;30;20207;-71
2022/08/24 09:41:48;;;;;;;30.08;6.20;;;32.80;99.90;;;;;;4714618;30;20277;-75
2022/08/24 09:45:02;;;;;;;35.42;6.75;;;32.70;99.90;;;;;;4714814;30;20211;-71
2022/08/24 09:47:53;;;;;;;38.25;6.78;;;32.60;99.90;;;;;;4700454;30;20249;-72
2022/08/24 09:51:25;;;;;;;32.70;6.35;;;32.40;99.90;;;;;;4737509;30;20748;-70
2022/08/24 09:54:36;;;;;;;44.55;7.30;;;32.30;99.90;;;;;;4735171;30;20232;-70
2022/08/24 09:57:39;;;;;;;35.53;6.38;;;32.10;99.90;;;;;;4733142;30;20248;-80
2022/08/24 10:01:22;;;;;;;34.78;6.13;;;31.90;99.90;;;;;;4732766;30;20301;-72
2022/08/24 10:04:38;;;;;;;38.05;7.15;;;31.80;99.90;;;;;;4720907;30;20269;-75
2022/08/24 10:07:27;;;;;;;42.10;6.57;;;31.50;99.90;;;;;;4692346;30;20259;-72
2022/08/24 10:10:10;;;;;;;37.90;7.05;;;31.40;99.90;;;;;;4650774;30;20236;-71
2022/08/24 10:13:03;;;;;;;31.63;6.28;;;31.30;99.90;;;;;;4679031;30;20200;-71
2022/08/24 10:15:42;;;;;;;33.05;6.53;;;31.00;99.90;;;;;;4679441;30;20684;-70
2022/08/24 10:18:19;;;;;;;36.38;6.57;;;31.00;99.90;;;;;;4679525;30;20213;-75
2022/08/24 10:21:01;;;;;;;30.70;6.45;;;30.70;99.90;;;;;;4679667;30;20641;-73
2022/08/24 10:23:48;;;;;;;47.13;7.80;;;30.30;99.90;;;;;;4689403;30;20242;-71
2022/08/24 10:26:31;;;;;;;35.63;6.68;;;30.10;99.90;;;;;;4714441;30;20259;-72
2022/08/24 10:29:10;;;;;;;35.63;5.97;;;30.20;99.90;;;;;;4714578;30;20225;-72
2022/08/24 10:32:13;;;;;;;53.33;9.05;;;30.20;99.90;;;;;;4721208;30;20210;-76
2022/08/24 10:35:43;;;;;;;44.92;7.63;;;30.20;99.90;;;;;;4722706;30;20275;-76
2022/08/24 10:41:40;;;;;;;35.28;6.85;;;30.70;99.90;;;;;;4747390;30;20713;-75
2022/08/24 10:44:13;;;;;;;33.28;7.20;;;31.10;99.90;;;;;;4755579;30;20209;-79
2022/08/24 10:47:20;;;;;;;32.03;6.72;;;31.50;99.90;;;;;;4753250;30;20259;-78
2022/08/24 10:50:07;;;;;;;38.60;6.63;;;32.00;99.90;;;;;;4740393;30;20215;-73
2022/08/24 10:52:35;;;;;;;52.55;8.38;;;32.30;99.90;;;;;;4785054;30;20213;-72
2022/08/24 10:55:30;;;;;;;40.60;6.80;;;33.00;99.90;;;;;;4907927;24;20669;-73
2022/08/24 10:58:48;;;;;;;31.33;6.75;;;33.80;99.90;;;;;;4842470;29;20209;-77
2022/08/24 11:01:22;;;;;;;34.85;6.90;;;34.30;99.90;;;;;;4809785;29;20221;-73
2022/08/24 11:03:55;;;;;;;41.50;6.95;;;34.80;99.90;;;;;;4813886;29;20207;-73
2022/08/24 11:06:24;;;;;;;44.47;6.88;;;35.00;99.90;;;;;;4809986;29;20223;-74
2022/08/24 11:09:03;;;;;;;30.92;6.60;;;35.40;99.90;;;;;;4829435;29;20274;-77
2022/08/24 11:11:34;;;;;;;41.78;6.63;;;35.60;99.90;;;;;;4811683;29;20234;-73
2022/08/24 11:14:25;;;;;;;38.30;6.85;;;36.00;99.90;;;;;;4808736;29;20202;-76
2022/08/24 11:16:53;;;;;;;32.67;6.30;;;36.10;99.90;;;;;;4823753;29;20246;-75
2022/08/24 11:19:34;;;;;;;41.72;6.57;;;36.40;99.90;;;;;;4809743;29;20250;-80
2022/08/24 11:22:19;;;;;;;40.83;6.63;;;36.50;99.00;;;;;;4825669;29;20206;-74
2022/08/24 11:24:47;;;;;;;39.85;6.57;;;36.80;98.00;;;;;;4809222;29;20199;-77
2022/08/24 11:28:10;;;;;;;46.47;6.72;;;37.30;97.60;;;;;;4808735;29;20222;-76
2022/08/24 11:30:39;;;;;;;37.78;6.65;;;37.30;94.10;;;;;;4787790;30;20218;-75
2022/08/24 11:33:28;;;;;;;38.70;6.57;;;37.70;94.60;;;;;;4796067;29;20225;-85
2022/08/24 11:46:39;;;;;;;27.83;6.30;;;37.10;95.90;;;;;;4827063;29;20194;-74
2022/08/24 11:49:58;;;;;;;42.28;6.72;;;37.70;95.30;;;;;;4764004;30;20219;-85
2022/08/24 11:52:46;;;;;;;45.38;6.65;;;38.60;91.00;;;;;;4757320;30;20314;-85
2022/08/24 11:55:42;;;;;;;48.05;7.07;;;39.30;89.60;;;;;;4767184;30;20208;-81
2022/08/24 11:58:36;;;;;;;43.20;6.70;;;39.50;83.60;;;;;;4739696;30;20214;-79
2022/08/24 12:01:38;;;;;;;47.95;6.90;;;39.00;79.90;;;;;;4732192;30;20210;-79
2022/08/24 12:04:32;;;;;;;41.58;6.68;;;39.30;80.20;;;;;;4718519;30;20325;-75
2022/08/24 12:07:21;;;;;;;31.23;5.90;;;39.60;84.20;;;;;;4718737;30;20238;-76
2022/08/24 12:10:00;;;;;;;45.20;6.60;;;39.80;85.30;;;;;;4718494;30;20203;-78
2022/08/24 12:12:34;;;;;;;43.47;6.80;;;39.70;79.00;;;;;;4718098;30;20206;-76
2022/08/24 12:15:41;;;;;;;37.17;6.38;;;39.20;78.50;;;;;;4731606;30;20215;-77
2022/08/24 12:18:29;;;;;;;42.35;6.40;;;39.40;76.50;;;;;;4718492;30;20310;-79
2022/08/24 12:21:11;;;;;;;44.10;6.63;;;39.80;76.80;;;;;;4772846;24;20338;-78
2022/08/24 12:24:16;;;;;;;44.05;7.07;;;40.10;73.50;;;;;;4750224;30;20229;-78
2022/08/24 12:26:50;;;;;;;44.67;6.53;;;39.90;71.70;;;;;;4769041;30;20225;-76
2022/08/24 12:29:17;;;;;;;36.17;6.07;;;39.80;74.00;;;;;;4770245;30;20622;-75
2022/08/24 12:31:59;;;;;;;39.33;6.32;;;39.80;73.10;;;;;;4769018;30;20323;-81
2022/08/24 12:34:51;;;;;;;47.22;7.22;;;39.60;72.70;;;;;;4769200;30;20232;-75
2022/08/24 12:37:39;;;;;;;47.92;7.20;;;39.30;73.30;;;;;;4738135;30;20297;-74
2022/08/24 12:40:53;;;;;;;51.30;8.02;;;38.90;73.30;;;;;;4751601;30;20190;-78
2022/08/24 12:44:22;;;;;;;51.75;6.75;;;39.10;72.10;;;;;;4741049;30;20209;-76
2022/08/24 12:47:02;;;;;;;38.78;6.80;;;39.20;72.60;;;;;;4683718;30;20555;-80
2022/08/24 12:49:59;;;;;;;29.60;6.93;;;39.30;73.90;;;;;;4688782;30;20656;-77
2022/08/24 12:53:03;;;;;;;31.92;6.82;;;39.30;75.70;;;;;;4690679;30;20672;-77
2022/08/24 12:56:17;;;;;;;40.92;7.20;;;39.00;76.60;;;;;;4692691;30;20211;-77
2022/08/24 12:58:58;;;;;;;32.67;6.40;;;38.20;78.60;;;;;;4689729;30;20270;-76
2022/08/24 13:01:32;;;;;;;32.95;6.45;;;38.30;78.10;;;;;;4689206;30;20284;-75
2022/08/24 13:04:07;;;;;;;32.85;7.05;;;37.90;79.30;;;;;;4700487;30;20273;-75
2022/08/24 13:06:41;;;;;;;33.75;7.03;;;37.80;81.40;;;;;;4699369;30;20233;-75
2022/08/24 13:09:27;;;;;;;34.33;7.15;;;37.70;80.50;;;;;;4685247;30;20249;-76
2022/08/24 13:11:56;;;;;;;34.47;7.22;;;37.40;81.10;;;;;;4700313;30;20620;-79
2022/08/24 13:14:26;;;;;;;36.65;7.03;;;37.20;81.60;;;;;;4700771;30;20334;-77
2022/08/24 13:16:56;;;;;;;37.25;6.95;;;36.60;82.20;;;;;;4700841;30;20215;-75
2022/08/24 13:19:25;;;;;;;39.05;6.90;;;36.50;84.60;;;;;;4700708;30;20241;-74
2022/08/24 13:21:57;;;;;;;38.65;6.80;;;36.30;83.80;;;;;;4706708;30;20238;-75
2022/08/24 13:24:29;;;;;;;46.15;6.85;;;36.80;83.90;;;;;;4760274;30;20215;-76
2022/08/24 13:27:11;;;;;;;39.85;7.10;;;36.70;82.70;;;;;;4769367;30;20695;-76
2022/08/24 13:29:43;;;;;;;37.33;7.45;;;36.40;82.90;;;;;;4771627;30;20204;-75
2022/08/24 13:32:34;;;;;;;50.88;7.45;;;36.70;83.30;;;;;;4786055;30;20732;-75
2022/08/24 13:35:38;;;;;;;43.00;7.28;;;36.10;83.60;;;;;;4773564;30;20293;-78
2022/08/24 13:38:32;;;;;;;41.03;7.10;;;36.30;84.00;;;;;;4789716;30;20559;-74
2022/08/24 13:41:40;;;;;;;31.60;6.75;;;36.10;84.00;;;;;;4782701;30;20200;-75